Time;durP1;ratioP1;P1;durP2;ratioP2;P2;SDS_P1;SDS_P2;PMS_P1;PMS_P2;Temp;Humidity;BMP_temperature;BMP_pressure;BME280_temperature;BME280_humidity;BME280_pressure;Samples;Min_cycle;Max_cycle;Signal;HPM_P1;HPM_P2
2024/03/17 00:00:39;;;;;;;14.93;14.05;;;;;;;;;;4959124;29;20035;-91
2024/03/17 00:03:08;;;;;;;10.35;9.57;;;;;;;;;;4945024;29;20408;-90
2024/03/17 00:05:34;;;;;;;5.50;5.10;;;;;;;;;;4941683;29;20117;-92
2024/03/17 00:08:04;;;;;;;10.05;9.40;;;;;;;;;;4924606;29;20039;-92
2024/03/17 00:10:30;;;;;;;7.05;6.55;;;;;;;;;;4939261;29;20138;-93
2024/03/17 00:12:57;;;;;;;6.38;5.88;;;;;;;;;;4939441;29;20031;-93
2024/03/17 00:15:27;;;;;;;6.75;6.25;;;;;;;;;;4940454;29;20155;-94
2024/03/17 00:17:56;;;;;;;6.18;5.68;;;;;;;;;;4923840;29;20075;-93
2024/03/17 00:20:22;;;;;;;9.52;8.88;;;;;;;;;;4940125;29;20066;-92
2024/03/17 00:22:48;;;;;;;4.97;4.57;;;;;;;;;;4938724;29;20027;-92
2024/03/17 00:25:15;;;;;;;6.47;5.97;;;;;;;;;;4938566;29;20031;-93
2024/03/17 00:27:43;;;;;;;5.80;5.40;;;;;;;;;;4938664;29;20024;-92
2024/03/17 00:30:12;;;;;;;6.32;5.82;;;;;;;;;;4938880;29;20038;-91
2024/03/17 00:32:39;;;;;;;5.93;5.40;;;;;;;;;;4938645;29;20031;-93
2024/03/17 00:35:06;;;;;;;7.53;6.93;;;;;;;;;;4938379;29;20122;-91
2024/03/17 00:37:33;;;;;;;5.80;5.30;;;;;;;;;;4938604;29;20032;-93
2024/03/17 00:39:59;;;;;;;6.50;5.95;;;;;;;;;;4938669;29;20027;-91
2024/03/17 00:42:26;;;;;;;7.15;6.57;;;;;;;;;;4938771;29;20023;-92
2024/03/17 00:44:52;;;;;;;6.07;5.57;;;;;;;;;;4938466;29;20481;-93
2024/03/17 00:47:18;;;;;;;6.50;6.00;;;;;;;;;;4938399;29;20027;-91
2024/03/17 00:49:44;;;;;;;6.30;5.80;;;;;;;;;;4938698;29;20027;-93
2024/03/17 00:52:10;;;;;;;6.65;6.05;;;;;;;;;;4938560;29;20433;-93
2024/03/17 00:54:37;;;;;;;7.15;6.65;;;;;;;;;;4938793;29;20031;-92
2024/03/17 00:57:03;;;;;;;8.07;7.47;;;;;;;;;;4952194;28;20042;-93
2024/03/17 00:59:29;;;;;;;7.20;6.50;;;;;;;;;;4957556;28;20031;-93
2024/03/17 01:01:55;;;;;;;6.63;6.03;;;;;;;;;;4958139;28;20053;-92
2024/03/17 01:04:21;;;;;;;8.23;7.60;;;;;;;;;;4957963;28;20034;-92
2024/03/17 01:06:47;;;;;;;7.93;7.20;;;;;;;;;;4957843;28;20027;-92
2024/03/17 01:09:14;;;;;;;8.63;7.82;;;;;;;;;;4959640;28;20081;-92
2024/03/17 01:11:40;;;;;;;7.03;6.43;;;;;;;;;;4960815;28;20023;-92
2024/03/17 01:14:07;;;;;;;9.40;7.28;;;;;;;;;;4960978;28;20134;-92
2024/03/17 01:16:33;;;;;;;7.43;6.78;;;;;;;;;;4960791;28;20037;-92
2024/03/17 01:18:59;;;;;;;8.68;7.97;;;;;;;;;;4958783;28;20062;-91
2024/03/17 01:21:25;;;;;;;7.90;7.20;;;;;;;;;;4955125;28;20555;-92
2024/03/17 01:23:52;;;;;;;8.07;6.95;;;;;;;;;;4952208;29;20140;-92
2024/03/17 01:26:18;;;;;;;6.75;6.15;;;;;;;;;;4941890;29;20066;-92
2024/03/17 01:28:44;;;;;;;7.40;6.70;;;;;;;;;;4941959;29;20530;-92
2024/03/17 01:31:10;;;;;;;7.13;6.47;;;;;;;;;;4941987;29;20027;-92
2024/03/17 01:33:36;;;;;;;7.00;6.30;;;;;;;;;;4955777;28;20110;-91
2024/03/17 01:36:02;;;;;;;7.28;6.03;;;;;;;;;;4960753;28;20035;-92
2024/03/17 01:38:29;;;;;;;7.75;6.15;;;;;;;;;;4960831;28;20083;-92
2024/03/17 01:40:55;;;;;;;7.80;6.63;;;;;;;;;;4961138;28;20488;-92
2024/03/17 01:43:21;;;;;;;7.78;6.57;;;;;;;;;;4963275;28;20022;-93
2024/03/17 01:45:47;;;;;;;8.63;7.82;;;;;;;;;;4982319;28;20030;-91
2024/03/17 01:48:16;;;;;;;7.47;6.30;;;;;;;;;;4961367;28;20027;-92
2024/03/17 01:50:43;;;;;;;6.53;5.80;;;;;;;;;;4960211;28;20542;-92
2024/03/17 01:53:09;;;;;;;7.28;6.40;;;;;;;;;;4960434;28;20031;-93
2024/03/17 01:55:38;;;;;;;7.55;6.85;;;;;;;;;;4960084;28;20038;-92
2024/03/17 01:58:07;;;;;;;8.35;5.68;;;;;;;;;;4960027;28;20113;-92
2024/03/17 02:00:38;;;;;;;8.35;7.22;;;;;;;;;;4959818;28;20063;-92
2024/03/17 02:03:05;;;;;;;7.90;7.20;;;;;;;;;;4959995;28;20054;-90
2024/03/17 02:05:33;;;;;;;7.97;7.18;;;;;;;;;;4959817;28;20027;-91
2024/03/17 02:07:59;;;;;;;7.60;6.93;;;;;;;;;;4959999;28;20035;-91
2024/03/17 02:10:25;;;;;;;8.90;7.20;;;;;;;;;;4959933;28;20856;-91
2024/03/17 02:12:52;;;;;;;7.78;7.07;;;;;;;;;;4959883;28;20815;-91
2024/03/17 02:15:18;;;;;;;11.23;6.78;;;;;;;;;;4946429;29;20035;-92
2024/03/17 02:17:44;;;;;;;10.30;8.02;;;;;;;;;;4940376;29;20034;-90
2024/03/17 02:20:11;;;;;;;7.95;7.03;;;;;;;;;;4940556;29;20129;-92
2024/03/17 02:22:37;;;;;;;8.75;7.55;;;;;;;;;;4940573;29;20473;-92
2024/03/17 02:25:07;;;;;;;10.65;6.95;;;;;;;;;;4941080;29;20035;-92
2024/03/17 02:27:33;;;;;;;9.57;6.82;;;;;;;;;;4940939;29;20027;-91
2024/03/17 02:30:00;;;;;;;9.30;5.90;;;;;;;;;;4940558;29;20038;-91
2024/03/17 02:32:27;;;;;;;8.23;7.15;;;;;;;;;;4940705;29;20027;-92
2024/03/17 02:34:54;;;;;;;7.57;6.88;;;;;;;;;;4940066;29;20496;-92
2024/03/17 02:37:20;;;;;;;10.45;7.38;;;;;;;;;;4940251;29;20031;-92
2024/03/17 02:39:46;;;;;;;7.80;6.97;;;;;;;;;;4960343;28;20063;-91
2024/03/17 02:42:13;;;;;;;7.75;6.85;;;;;;;;;;4970347;28;20035;-92
2024/03/17 02:44:40;;;;;;;8.25;7.45;;;;;;;;;;4959461;28;20019;-92
2024/03/17 02:47:10;;;;;;;8.48;7.68;;;;;;;;;;4959263;28;20031;-92
2024/03/17 02:49:37;;;;;;;8.25;7.45;;;;;;;;;;4959254;28;20027;-91
2024/03/17 02:52:04;;;;;;;8.65;7.75;;;;;;;;;;4959640;28;20038;-91
2024/03/17 02:54:30;;;;;;;11.35;7.90;;;;;;;;;;4959351;28;20049;-92
2024/03/17 02:56:57;;;;;;;8.65;7.85;;;;;;;;;;4976565;28;20059;-92
2024/03/17 02:59:23;;;;;;;8.82;7.40;;;;;;;;;;4959119;28;20472;-91
2024/03/17 03:01:49;;;;;;;8.93;7.50;;;;;;;;;;4958813;28;20027;-91
2024/03/17 03:04:15;;;;;;;9.45;7.97;;;;;;;;;;4958897;28;20101;-92
2024/03/17 03:06:45;;;;;;;8.77;7.88;;;;;;;;;;4957088;28;20035;-93
2024/03/17 03:09:14;;;;;;;11.50;7.35;;;;;;;;;;4939452;29;20130;-93
2024/03/17 03:11:41;;;;;;;9.45;7.95;;;;;;;;;;4939649;29;20067;-93
2024/03/17 03:14:08;;;;;;;8.65;7.32;;;;;;;;;;4940503;29;20023;-92
2024/03/17 03:16:34;;;;;;;7.30;6.70;;;;;;;;;;4939207;29;20087;-94
2024/03/17 03:19:00;;;;;;;9.80;7.05;;;;;;;;;;4940221;29;20079;-91
2024/03/17 03:21:26;;;;;;;7.57;6.50;;;;;;;;;;4946272;28;20156;-92
2024/03/17 03:23:53;;;;;;;8.10;6.68;;;;;;;;;;4950236;28;20483;-91
2024/03/17 03:26:19;;;;;;;6.43;5.78;;;;;;;;;;4961622;28;20023;-93
2024/03/17 03:28:46;;;;;;;8.23;7.50;;;;;;;;;;4974505;28;20035;-91
2024/03/17 03:31:15;;;;;;;6.72;6.22;;;;;;;;;;4950452;29;20492;-92
2024/03/17 03:33:41;;;;;;;6.63;5.95;;;;;;;;;;4940125;29;20031;-91
2024/03/17 03:36:08;;;;;;;6.75;5.93;;;;;;;;;;4939608;29;20031;-92
2024/03/17 03:38:35;;;;;;;9.52;7.45;;;;;;;;;;4939348;29;20061;-92
2024/03/17 03:41:06;;;;;;;7.38;5.60;;;;;;;;;;4939708;29;20489;-91
2024/03/17 03:43:32;;;;;;;6.80;5.20;;;;;;;;;;4942801;28;20058;-92
2024/03/17 03:46:00;;;;;;;6.10;5.50;;;;;;;;;;4958269;28;20041;-91
2024/03/17 03:48:26;;;;;;;5.72;5.18;;;;;;;;;;4940217;29;20042;-91
2024/03/17 03:50:55;;;;;;;5.93;5.25;;;;;;;;;;4939938;29;20098;-92
2024/03/17 03:53:22;;;;;;;8.07;6.43;;;;;;;;;;4956406;29;20023;-92
2024/03/17 03:55:49;;;;;;;6.25;5.32;;;;;;;;;;4939369;29;20039;-91
2024/03/17 03:58:15;;;;;;;6.20;5.60;;;;;;;;;;4938648;29;20118;-91
2024/03/17 04:00:41;;;;;;;7.18;6.47;;;;;;;;;;4938977;29;20035;-92
2024/03/17 04:03:07;;;;;;;6.65;4.93;;;;;;;;;;4938885;29;20038;-90
2024/03/17 04:05:34;;;;;;;8.90;5.97;;;;;;;;;;4939044;29;20125;-91
2024/03/17 04:08:01;;;;;;;9.20;6.63;;;;;;;;;;4939182;29;20189;-91
2024/03/17 04:10:27;;;;;;;7.95;6.18;;;;;;;;;;4938973;29;20055;-91
2024/03/17 04:12:53;;;;;;;8.98;6.30;;;;;;;;;;4939229;29;20027;-91
2024/03/17 04:15:20;;;;;;;6.18;5.35;;;;;;;;;;4938515;29;20077;-91
2024/03/17 04:17:47;;;;;;;6.50;5.90;;;;;;;;;;4938767;29;20027;-89
2024/03/17 04:20:13;;;;;;;7.70;6.72;;;;;;;;;;4943663;28;20027;-90
2024/03/17 04:22:40;;;;;;;10.10;6.22;;;;;;;;;;4958294;28;20085;-92
2024/03/17 04:25:07;;;;;;;11.73;6.75;;;;;;;;;;4947307;29;20028;-91
2024/03/17 04:27:36;;;;;;;7.00;6.32;;;;;;;;;;4944605;28;20429;-91
2024/03/17 04:30:05;;;;;;;8.13;7.18;;;;;;;;;;4939970;29;20071;-90
2024/03/17 04:32:32;;;;;;;9.07;5.88;;;;;;;;;;4938615;29;20161;-91
2024/03/17 04:34:58;;;;;;;7.47;5.80;;;;;;;;;;4938977;29;20086;-91
2024/03/17 04:37:24;;;;;;;8.65;5.78;;;;;;;;;;4938672;29;20117;-91
2024/03/17 04:39:51;;;;;;;8.38;6.80;;;;;;;;;;4939009;29;20035;-92
2024/03/17 04:42:17;;;;;;;7.18;6.38;;;;;;;;;;4939045;29;20347;-91
2024/03/17 04:44:44;;;;;;;9.95;7.80;;;;;;;;;;4942184;29;20028;-91
2024/03/17 04:47:10;;;;;;;10.15;7.22;;;;;;;;;;4942273;29;20046;-92
2024/03/17 04:49:40;;;;;;;9.65;7.70;;;;;;;;;;4942015;29;20120;-91
2024/03/17 04:52:07;;;;;;;8.52;7.68;;;;;;;;;;4959596;29;20023;-92
2024/03/17 04:54:34;;;;;;;8.45;7.65;;;;;;;;;;4942554;29;20036;-91
2024/03/17 04:57:00;;;;;;;9.48;7.30;;;;;;;;;;4944591;28;20027;-91
2024/03/17 04:59:27;;;;;;;9.60;8.65;;;;;;;;;;4951419;28;20027;-91
2024/03/17 05:01:53;;;;;;;10.27;7.68;;;;;;;;;;4922727;29;20043;-91
2024/03/17 05:04:20;;;;;;;8.57;7.65;;;;;;;;;;4947677;28;20098;-91
2024/03/17 05:06:49;;;;;;;9.90;8.98;;;;;;;;;;4956476;28;20031;-92
2024/03/17 05:09:19;;;;;;;9.10;8.07;;;;;;;;;;4934037;28;20027;-90
2024/03/17 05:11:47;;;;;;;9.23;8.20;;;;;;;;;;4961143;28;20063;-91
2024/03/17 05:14:13;;;;;;;13.55;7.88;;;;;;;;;;4978443;28;20039;-90
2024/03/17 05:16:39;;;;;;;8.63;7.10;;;;;;;;;;4965121;28;20141;-90
2024/03/17 05:19:06;;;;;;;8.88;7.18;;;;;;;;;;4960886;28;20026;-91
2024/03/17 05:21:32;;;;;;;9.05;7.65;;;;;;;;;;4961111;28;20077;-91
2024/03/17 05:23:58;;;;;;;9.13;7.50;;;;;;;;;;4961137;28;20027;-91
2024/03/17 05:26:25;;;;;;;9.25;7.65;;;;;;;;;;4960674;28;20030;-91
2024/03/17 05:28:51;;;;;;;8.73;7.82;;;;;;;;;;4960398;28;20037;-92
2024/03/17 05:31:18;;;;;;;7.63;6.82;;;;;;;;;;4955829;29;20496;-92
2024/03/17 05:33:44;;;;;;;7.32;6.50;;;;;;;;;;4941519;29;20027;-92
2024/03/17 05:36:10;;;;;;;9.40;7.18;;;;;;;;;;4944425;28;20503;-91
2024/03/17 05:38:36;;;;;;;10.05;7.68;;;;;;;;;;4960792;28;20023;-91
2024/03/17 05:41:03;;;;;;;7.53;6.43;;;;;;;;;;4960324;28;20066;-92
2024/03/17 05:43:30;;;;;;;7.88;7.03;;;;;;;;;;4960577;28;20055;-92
2024/03/17 05:46:06;;;;;;;10.35;9.32;;;;;;;;;;4961124;28;20114;-92
2024/03/17 05:48:32;;;;;;;11.00;10.15;;;;;;;;;;4969871;28;20021;-92
2024/03/17 05:50:58;;;;;;;17.85;16.40;;;;;;;;;;4957332;28;20062;-91
2024/03/17 05:53:24;;;;;;;25.38;23.45;;;;;;;;;;4941235;28;20028;-92
2024/03/17 05:55:51;;;;;;;28.63;26.83;;;;;;;;;;4940892;29;20089;-90
2024/03/17 05:58:17;;;;;;;36.05;33.85;;;;;;;;;;4950361;28;20041;-92
2024/03/17 06:00:43;;;;;;;40.20;37.80;;;;;;;;;;4959955;28;20117;-93
2024/03/17 06:03:10;;;;;;;49.40;46.58;;;;;;;;;;4959916;28;20026;-93
2024/03/17 06:05:37;;;;;;;43.40;40.80;;;;;;;;;;4959987;28;20531;-93
2024/03/17 06:08:04;;;;;;;31.17;29.17;;;;;;;;;;4959796;28;20023;-95
2024/03/17 06:10:31;;;;;;;23.27;21.63;;;;;;;;;;4959618;28;20467;-90
2024/03/17 06:12:57;;;;;;;18.00;16.60;;;;;;;;;;4960163;28;20022;-91
2024/03/17 06:15:24;;;;;;;16.67;15.20;;;;;;;;;;4959650;28;20548;-90
2024/03/17 06:17:53;;;;;;;15.55;14.27;;;;;;;;;;4959641;28;20027;-91
2024/03/17 06:20:28;;;;;;;11.48;10.48;;;;;;;;;;4959685;28;20030;-91
2024/03/17 06:22:55;;;;;;;10.27;9.30;;;;;;;;;;4949109;29;20079;-92
2024/03/17 06:25:24;;;;;;;12.57;11.57;;;;;;;;;;4940437;29;20035;-91
2024/03/17 06:27:51;;;;;;;8.82;7.85;;;;;;;;;;4950076;28;20082;-92
2024/03/17 06:30:17;;;;;;;9.88;8.98;;;;;;;;;;4959490;28;20121;-91
2024/03/17 06:33:19;;;;;;;12.60;11.45;;;;;;;;;;4959479;28;20026;-91
2024/03/17 06:35:57;;;;;;;14.00;12.90;;;;;;;;;;4944114;29;20047;-94
2024/03/17 06:38:29;;;;;;;9.90;8.10;;;;;;;;;;4926624;29;20058;-90
2024/03/17 06:40:55;;;;;;;8.18;7.15;;;;;;;;;;4940040;29;20030;-92
2024/03/17 06:43:24;;;;;;;11.63;10.60;;;;;;;;;;4940095;29;20114;-90
2024/03/17 06:45:55;;;;;;;9.30;8.50;;;;;;;;;;4940141;29;20067;-92
2024/03/17 06:48:24;;;;;;;7.43;6.60;;;;;;;;;;4941368;29;20035;-89
2024/03/17 06:51:17;;;;;;;9.07;8.18;;;;;;;;;;4939791;29;20034;-92
2024/03/17 06:53:48;;;;;;;7.93;7.13;;;;;;;;;;4957070;28;20024;-91
2024/03/17 06:56:14;;;;;;;8.20;7.38;;;;;;;;;;4965414;28;20058;-92
2024/03/17 06:58:44;;;;;;;8.65;5.97;;;;;;;;;;4976948;28;20030;-91
2024/03/17 07:01:25;;;;;;;6.53;5.85;;;;;;;;;;4961948;28;20528;-92
2024/03/17 07:03:51;;;;;;;6.97;6.15;;;;;;;;;;4958869;28;20030;-91
2024/03/17 07:06:17;;;;;;;9.07;5.50;;;;;;;;;;4949714;28;20555;-94
2024/03/17 07:08:44;;;;;;;7.35;6.65;;;;;;;;;;4939689;29;20153;-90
2024/03/17 07:11:10;;;;;;;8.52;7.72;;;;;;;;;;4939038;29;20062;-92
2024/03/17 07:13:37;;;;;;;8.50;7.68;;;;;;;;;;4939562;29;20028;-93
2024/03/17 07:16:05;;;;;;;8.75;7.70;;;;;;;;;;4953036;28;20066;-92
2024/03/17 07:18:32;;;;;;;9.77;7.25;;;;;;;;;;4960316;28;20026;-91
2024/03/17 07:21:41;;;;;;;7.13;5.93;;;;;;;;;;4963813;28;20369;-94
2024/03/17 07:23:55;;;;;;;7.85;6.47;;;;;;;;;;4972781;28;20401;-95
2024/03/17 07:26:39;;;;;;;7.95;6.30;;;;;;;;;;4963812;28;20031;-96
2024/03/17 07:29:11;;;;;;;6.82;5.68;;;;;;;;;;4956995;29;20031;-95
2024/03/17 07:31:37;;;;;;;7.55;5.47;;;;;;;;;;4928846;29;20039;-95
2024/03/17 07:34:06;;;;;;;8.23;5.72;;;;;;;;;;4948155;28;20033;-93
2024/03/17 07:36:36;;;;;;;6.88;5.50;;;;;;;;;;4946720;28;20125;-94
2024/03/17 07:39:09;;;;;;;6.60;5.13;;;;;;;;;;4963718;28;20042;-93
2024/03/17 07:41:41;;;;;;;6.65;4.97;;;;;;;;;;4964719;28;20044;-93
2024/03/17 07:44:07;;;;;;;7.33;4.77;;;;;;;;;;4962191;28;20057;-92
2024/03/17 07:46:36;;;;;;;7.40;4.95;;;;;;;;;;4962500;28;20031;-90
2024/03/17 07:49:02;;;;;;;6.07;3.67;;;;;;;;;;4961258;28;20030;-90
2024/03/17 07:51:28;;;;;;;4.97;3.72;;;;;;;;;;4959954;28;20030;-88
2024/03/17 07:53:55;;;;;;;5.38;3.92;;;;;;;;;;4976493;28;20023;-89
2024/03/17 07:56:21;;;;;;;6.55;3.47;;;;;;;;;;4956346;28;20035;-89
2024/03/17 07:58:49;;;;;;;6.60;3.50;;;;;;;;;;4941796;29;20054;-91
2024/03/17 08:01:16;;;;;;;6.13;4.13;;;;;;;;;;4957185;28;20026;-90
2024/03/17 08:03:45;;;;;;;6.15;3.17;;;;;;;;;;4940068;29;20464;-88
2024/03/17 08:06:14;;;;;;;5.05;3.63;;;;;;;;;;4950565;29;20047;-92
2024/03/17 08:08:42;;;;;;;6.68;3.92;;;;;;;;;;4953065;28;20023;-92
2024/03/17 08:11:14;;;;;;;6.20;4.10;;;;;;;;;;4933746;29;20066;-91
2024/03/17 08:13:41;;;;;;;4.47;3.30;;;;;;;;;;4959467;28;20035;-92
2024/03/17 08:16:16;;;;;;;5.93;4.07;;;;;;;;;;4944041;29;20043;-90
2024/03/17 08:18:53;;;;;;;6.05;4.00;;;;;;;;;;4969003;28;20085;-92
2024/03/17 08:21:19;;;;;;;5.72;3.90;;;;;;;;;;4950334;28;20046;-91
2024/03/17 08:23:48;;;;;;;7.82;4.07;;;;;;;;;;4966117;28;20080;-90
2024/03/17 08:26:42;;;;;;;6.20;4.22;;;;;;;;;;4963577;28;20019;-90
2024/03/17 08:29:08;;;;;;;4.97;3.35;;;;;;;;;;4964585;28;20494;-94
2024/03/17 08:31:34;;;;;;;5.75;4.22;;;;;;;;;;4957553;29;20539;-91
2024/03/17 08:34:00;;;;;;;8.95;4.05;;;;;;;;;;4947980;28;20054;-91
2024/03/17 08:36:28;;;;;;;6.18;3.95;;;;;;;;;;4981610;28;20413;-90
2024/03/17 08:38:55;;;;;;;6.00;3.72;;;;;;;;;;4971978;28;20062;-87
2024/03/17 08:44:00;;;;;;;5.57;4.28;;;;;;;;;;5287649;23;20114;-88
2024/03/17 08:46:32;;;;;;;6.43;4.43;;;;;;;;;;4981370;28;20023;-90
2024/03/17 08:48:58;;;;;;;8.18;4.43;;;;;;;;;;4979465;28;20395;-90
2024/03/17 08:51:33;;;;;;;6.18;4.43;;;;;;;;;;4998048;28;20077;-92
2024/03/17 08:54:02;;;;;;;6.70;4.32;;;;;;;;;;5009535;28;20019;-88
2024/03/17 08:56:49;;;;;;;5.97;5.15;;;;;;;;;;4999657;28;20042;-90
2024/03/17 08:59:37;;;;;;;5.22;4.20;;;;;;;;;;5000237;28;20015;-91
2024/03/17 09:02:03;;;;;;;5.80;4.65;;;;;;;;;;4997087;28;20027;-90
2024/03/17 09:04:29;;;;;;;6.38;4.13;;;;;;;;;;4981328;28;20052;-89
2024/03/17 09:06:56;;;;;;;7.63;4.50;;;;;;;;;;4980622;28;20037;-88
2024/03/17 09:09:22;;;;;;;5.40;4.25;;;;;;;;;;4980600;28;20494;-89
2024/03/17 09:11:48;;;;;;;6.53;4.43;;;;;;;;;;4981253;28;20466;-88
2024/03/17 09:14:18;;;;;;;7.80;5.28;;;;;;;;;;4974589;28;20027;-92
2024/03/17 09:16:59;;;;;;;7.70;5.80;;;;;;;;;;4930823;28;20052;-90
2024/03/17 09:19:33;;;;;;;6.63;5.35;;;;;;;;;;4963826;28;20030;-91
2024/03/17 09:22:03;;;;;;;8.80;7.80;;;;;;;;;;4975719;28;20097;-91
2024/03/17 09:24:32;;;;;;;12.90;11.75;;;;;;;;;;4966686;28;20064;-92
2024/03/17 09:27:05;;;;;;;15.30;14.10;;;;;;;;;;4958060;28;20027;-92
2024/03/17 09:29:31;;;;;;;14.57;13.45;;;;;;;;;;4940760;29;20065;-90
2024/03/17 09:32:03;;;;;;;15.13;13.82;;;;;;;;;;4941786;29;20062;-92
2024/03/17 09:34:30;;;;;;;12.63;11.40;;;;;;;;;;4941653;29;20039;-92
2024/03/17 09:36:56;;;;;;;9.90;9.07;;;;;;;;;;4952762;28;20040;-90
2024/03/17 09:42:30;;;;;;;10.65;9.73;;;;;;;;;;4977983;28;20126;-90
2024/03/17 09:44:56;;;;;;;9.27;8.43;;;;;;;;;;4960914;28;20030;-92
2024/03/17 09:47:31;;;;;;;6.78;6.10;;;;;;;;;;4960638;28;20118;-92
2024/03/17 09:49:58;;;;;;;7.50;5.47;;;;;;;;;;4977257;28;20033;-92
2024/03/17 09:52:25;;;;;;;6.97;6.32;;;;;;;;;;4980237;28;20542;-92
2024/03/17 09:54:55;;;;;;;6.75;5.93;;;;;;;;;;4980044;28;20069;-91
2024/03/17 09:57:24;;;;;;;9.02;8.23;;;;;;;;;;4961670;28;20031;-93
2024/03/17 09:59:53;;;;;;;8.93;7.88;;;;;;;;;;4960756;28;20178;-92
2024/03/17 10:02:20;;;;;;;12.55;11.40;;;;;;;;;;4961328;28;20023;-92
2024/03/17 10:04:46;;;;;;;12.48;11.25;;;;;;;;;;4960938;28;20480;-92
2024/03/17 10:07:14;;;;;;;11.02;10.13;;;;;;;;;;4977359;28;20530;-93
2024/03/17 10:09:41;;;;;;;11.65;10.75;;;;;;;;;;4981006;28;20105;-91
2024/03/17 10:12:26;;;;;;;15.65;14.45;;;;;;;;;;4974365;28;20027;-92
2024/03/17 10:15:04;;;;;;;18.30;17.02;;;;;;;;;;4961949;28;20129;-92
2024/03/17 10:17:35;;;;;;;27.95;25.90;;;;;;;;;;4961364;28;20031;-92
2024/03/17 10:20:15;;;;;;;27.73;25.58;;;;;;;;;;4957362;28;20567;-92
2024/03/17 10:23:00;;;;;;;24.58;23.02;;;;;;;;;;4989854;28;20015;-91
2024/03/17 10:25:27;;;;;;;29.88;27.98;;;;;;;;;;4975400;28;20085;-92
2024/03/17 10:27:53;;;;;;;27.10;25.38;;;;;;;;;;4960372;28;20054;-91
2024/03/17 10:30:21;;;;;;;26.63;24.92;;;;;;;;;;4961119;28;20031;-91
2024/03/17 10:32:53;;;;;;;26.83;25.13;;;;;;;;;;4960723;28;20456;-92
2024/03/17 10:35:32;;;;;;;27.67;25.83;;;;;;;;;;4979373;28;20377;-93
2024/03/17 10:37:59;;;;;;;26.40;24.50;;;;;;;;;;4979792;28;20148;-92
2024/03/17 10:40:26;;;;;;;24.02;22.38;;;;;;;;;;4981270;28;20078;-92
2024/03/17 10:42:52;;;;;;;43.22;40.33;;;;;;;;;;4979500;28;20097;-92
2024/03/17 10:45:22;;;;;;;42.03;39.38;;;;;;;;;;4979376;28;20542;-92
2024/03/17 10:47:52;;;;;;;25.63;24.00;;;;;;;;;;4979541;28;20053;-92
2024/03/17 10:50:19;;;;;;;32.67;30.58;;;;;;;;;;4979533;28;20061;-93
2024/03/17 10:52:52;;;;;;;27.23;25.40;;;;;;;;;;4996779;28;20419;-91
2024/03/17 10:55:25;;;;;;;21.73;20.05;;;;;;;;;;4977365;28;20475;-92
2024/03/17 10:57:51;;;;;;;;;;;;;;;;;;4966483;28;20036;-91
2024/03/17 11:00:19;;;;;;;32.25;30.23;;;;;;;;;;4979062;28;19989;-92
2024/03/17 11:02:46;;;;;;;25.23;23.35;;;;;;;;;;4978717;28;20027;-92
2024/03/17 11:05:15;;;;;;;22.35;20.77;;;;;;;;;;4980558;28;20379;-89
2024/03/17 11:07:48;;;;;;;23.45;21.98;;;;;;;;;;4982489;28;20116;-90
2024/03/17 11:10:21;;;;;;;19.48;17.95;;;;;;;;;;4960190;28;20460;-92
2024/03/17 11:12:47;;;;;;;;;;;;;;;;;;4960719;28;20027;-95
2024/03/17 11:18:20;;;;;;;27.13;25.30;;;;;;;;;;4985187;28;20040;-89
2024/03/17 11:21:20;;;;;;;23.13;21.35;;;;;;;;;;4965290;28;20035;-90
2024/03/17 11:23:56;;;;;;;24.15;22.40;;;;;;;;;;4920413;28;20400;-89
2024/03/17 11:26:27;;;;;;;20.90;19.25;;;;;;;;;;4968101;28;20027;-90
2024/03/17 11:28:55;;;;;;;23.38;21.83;;;;;;;;;;4959121;28;20037;-90
2024/03/17 11:31:35;;;;;;;19.25;17.70;;;;;;;;;;4959574;28;20031;-89
2024/03/17 11:34:03;;;;;;;24.30;22.73;;;;;;;;;;4956166;28;20027;-90
2024/03/17 11:36:29;;;;;;;24.70;23.10;;;;;;;;;;4959959;28;20043;-89
2024/03/17 11:39:01;;;;;;;30.67;28.40;;;;;;;;;;4959213;28;20444;-92
2024/03/17 11:41:34;;;;;;;18.55;17.17;;;;;;;;;;4960700;28;20041;-89
2024/03/17 11:44:19;;;;;;;29.17;27.20;;;;;;;;;;4958369;29;20052;-95
2024/03/17 11:47:28;;;;;;;35.00;32.97;;;;;;;;;;4961603;28;20039;-95
2024/03/17 11:49:58;;;;;;;26.33;24.73;;;;;;;;;;4939446;28;20031;-94
2024/03/17 11:52:24;;;;;;;27.08;25.15;;;;;;;;;;5063324;23;20029;-95
2024/03/17 11:54:51;;;;;;;18.77;17.30;;;;;;;;;;4964683;28;20114;-94
2024/03/17 11:57:24;;;;;;;19.88;18.48;;;;;;;;;;4961189;28;20031;-96
2024/03/17 11:59:51;;;;;;;20.23;19.02;;;;;;;;;;4961872;28;20023;-93
2024/03/17 12:02:18;;;;;;;19.48;18.00;;;;;;;;;;4967619;28;20023;-94
2024/03/17 12:04:44;;;;;;;23.55;21.95;;;;;;;;;;4989111;28;20055;-89
2024/03/17 12:07:15;;;;;;;18.58;17.27;;;;;;;;;;4975709;28;20140;-91
2024/03/17 12:09:48;;;;;;;22.60;20.77;;;;;;;;;;4958361;28;20027;-90
2024/03/17 12:12:23;;;;;;;23.55;22.02;;;;;;;;;;4958331;28;20484;-90
2024/03/17 12:14:50;;;;;;;22.23;20.63;;;;;;;;;;4962110;28;20031;-91
2024/03/17 12:17:26;;;;;;;22.20;20.70;;;;;;;;;;4980408;28;20070;-92
2024/03/17 12:20:11;;;;;;;;;;;;;;;;;;;;;
2024/03/17 12:22:39;;;;;;;20.15;18.70;;;;;;;;;;4992706;28;20559;-91
2024/03/17 12:25:16;;;;;;;19.33;18.05;;;;;;;;;;4965238;28;20039;-93
2024/03/17 12:27:44;;;;;;;17.85;16.65;;;;;;;;;;4972685;28;20027;-92
2024/03/17 12:30:15;;;;;;;19.83;18.52;;;;;;;;;;4984729;28;20042;-92
2024/03/17 12:32:41;;;;;;;19.70;18.35;;;;;;;;;;4960432;28;20027;-92
2024/03/17 12:35:17;;;;;;;20.45;19.02;;;;;;;;;;4959781;28;20097;-88
2024/03/17 12:37:44;;;;;;;26.02;24.13;;;;;;;;;;4966374;28;20023;-88
2024/03/17 12:40:19;;;;;;;29.33;27.40;;;;;;;;;;4941649;29;20031;-90
2024/03/17 12:42:49;;;;;;;16.70;15.40;;;;;;;;;;4939524;29;20031;-88
2024/03/17 12:45:19;;;;;;;22.40;20.77;;;;;;;;;;4939309;29;20035;-90
2024/03/17 12:47:50;;;;;;;54.42;51.35;;;;;;;;;;4958409;28;20473;-90
2024/03/17 12:50:23;;;;;;;40.92;38.63;;;;;;;;;;4959547;28;20066;-90
2024/03/17 12:52:55;;;;;;;32.88;30.88;;;;;;;;;;4975658;28;20043;-91
2024/03/17 13:01:01;;;;;;;21.77;20.38;;;;;;;;;;4976878;28;20111;-93
2024/03/17 13:03:39;;;;;;;23.58;21.90;;;;;;;;;;4962610;28;20034;-92
2024/03/17 13:06:06;;;;;;;22.33;20.77;;;;;;;;;;4966484;28;20525;-91
2024/03/17 13:08:33;;;;;;;17.42;16.17;;;;;;;;;;4982751;28;20062;-90
2024/03/17 13:11:09;;;;;;;17.50;16.27;;;;;;;;;;4982910;28;20034;-92
2024/03/17 13:13:35;;;;;;;15.82;14.68;;;;;;;;;;4972199;28;20031;-90
2024/03/17 13:16:18;;;;;;;23.40;21.73;;;;;;;;;;4987989;28;20070;-92
2024/03/17 13:18:44;;;;;;;17.35;16.20;;;;;;;;;;4970922;28;20038;-91
2024/03/17 13:21:10;;;;;;;20.13;18.70;;;;;;;;;;4965128;28;20086;-94
2024/03/17 13:23:37;;;;;;;20.63;18.92;;;;;;;;;;4970880;28;20113;-91
2024/03/17 13:26:03;;;;;;;30.45;28.55;;;;;;;;;;4977481;28;20037;-92
2024/03/17 13:28:31;;;;;;;35.53;32.50;;;;;;;;;;4961135;28;20027;-91
2024/03/17 13:30:57;;;;;;;25.15;23.45;;;;;;;;;;4965909;28;20026;-91
2024/03/17 13:33:23;;;;;;;33.97;31.08;;;;;;;;;;4980063;28;20481;-90
2024/03/17 13:35:50;;;;;;;29.02;26.35;;;;;;;;;;4980464;28;20039;-90
2024/03/17 13:38:16;;;;;;;23.35;21.50;;;;;;;;;;4979795;28;20026;-92
2024/03/17 13:40:42;;;;;;;25.25;23.05;;;;;;;;;;4980062;28;20023;-91
2024/03/17 13:43:09;;;;;;;16.52;15.20;;;;;;;;;;4961409;28;20026;-92
2024/03/17 13:45:38;;;;;;;18.52;16.73;;;;;;;;;;4966810;28;20015;-91
2024/03/17 13:48:13;;;;;;;19.85;18.05;;;;;;;;;;4992533;28;20039;-90
2024/03/17 13:50:44;;;;;;;22.55;20.90;;;;;;;;;;4986756;28;20056;-90
2024/03/17 13:53:13;;;;;;;22.42;20.52;;;;;;;;;;4979974;28;20050;-90
2024/03/17 13:55:42;;;;;;;32.65;30.75;;;;;;;;;;4981213;28;20100;-89
2024/03/17 13:58:08;;;;;;;29.17;27.13;;;;;;;;;;4941722;29;20477;-91
2024/03/17 14:00:37;;;;;;;19.30;17.70;;;;;;;;;;4941321;29;20031;-90
2024/03/17 14:03:03;;;;;;;20.85;19.58;;;;;;;;;;4955918;28;20041;-90
2024/03/17 14:05:34;;;;;;;14.80;13.75;;;;;;;;;;4969502;28;20097;-90
2024/03/17 14:08:01;;;;;;;22.52;21.05;;;;;;;;;;4968920;28;20058;-88
2024/03/17 14:10:30;;;;;;;37.75;35.33;;;;;;;;;;4992480;28;20094;-93
2024/03/17 14:12:59;;;;;;;19.27;18.02;;;;;;;;;;4980917;28;20034;-90
2024/03/17 14:15:25;;;;;;;17.02;15.68;;;;;;;;;;4996684;28;20041;-89
2024/03/17 14:17:54;;;;;;;23.75;22.25;;;;;;;;;;4979952;28;20034;-89
2024/03/17 14:20:20;;;;;;;18.05;16.80;;;;;;;;;;4972245;28;20403;-88
2024/03/17 14:22:54;;;;;;;27.70;25.92;;;;;;;;;;4967079;28;20065;-89
2024/03/17 14:25:22;;;;;;;22.27;20.77;;;;;;;;;;4969424;28;20034;-88
2024/03/17 14:27:48;;;;;;;27.75;25.90;;;;;;;;;;4961297;28;20108;-91
2024/03/17 14:30:18;;;;;;;21.33;19.83;;;;;;;;;;4960120;28;20030;-92
2024/03/17 14:32:44;;;;;;;28.55;26.73;;;;;;;;;;4960743;28;20026;-90
2024/03/17 14:35:13;;;;;;;23.13;21.65;;;;;;;;;;4979345;28;20553;-91
2024/03/17 14:37:42;;;;;;;26.33;24.30;;;;;;;;;;4979609;28;20026;-91
2024/03/17 14:40:14;;;;;;;31.90;29.92;;;;;;;;;;4979053;28;20027;-91
2024/03/17 14:42:41;;;;;;;35.90;33.80;;;;;;;;;;4979201;28;20023;-90
2024/03/17 14:45:08;;;;;;;24.80;23.20;;;;;;;;;;4979080;28;20036;-89
2024/03/17 14:47:35;;;;;;;31.85;30.02;;;;;;;;;;4978716;28;20034;-90
2024/03/17 14:50:02;;;;;;;35.33;33.30;;;;;;;;;;4962971;28;20125;-90
2024/03/17 14:52:29;;;;;;;28.75;26.95;;;;;;;;;;4981592;28;20030;-90
2024/03/17 14:54:56;;;;;;;31.40;29.48;;;;;;;;;;4983185;28;20050;-90
2024/03/17 14:57:22;;;;;;;34.28;32.08;;;;;;;;;;4979256;28;20096;-91